Time;durP1;ratioP1;P1;durP2;ratioP2;P2;SDS_P1;SDS_P2;PMS_P1;PMS_P2;Temp;Humidity;BMP_temperature;BMP_pressure;BME280_temperature;BME280_humidity;BME280_pressure;Samples;Min_cycle;Max_cycle;Signal;HPM_P1;HPM_P2
2023/02/21 02:17:15;;;;;;;0.20;0.10;;;8.50;99.90;;;;;;21139327;28;20391;-68
2023/02/21 02:27:54;;;;;;;0.20;0.10;;;8.30;99.90;;;;;;21138461;28;20407;-69
2023/02/21 02:38:03;;;;;;;0.20;0.10;;;8.40;99.90;;;;;;21125711;28;20405;-68
2023/02/21 02:48:15;;;;;;;0.20;0.10;;;8.40;99.90;;;;;;21170201;27;20403;-70
2023/02/21 02:58:22;;;;;;;0.20;0.10;;;8.30;99.90;;;;;;21135693;28;20506;-69
2023/02/21 03:08:33;;;;;;;0.20;0.10;;;8.10;99.90;;;;;;21153723;28;20534;-69
2023/02/21 03:18:42;;;;;;;0.20;0.10;;;8.10;99.90;;;;;;21152878;28;20434;-68
2023/02/21 03:28:48;;;;;;;0.20;0.10;;;8.10;99.90;;;;;;21133524;28;20402;-68
2023/02/21 03:38:53;;;;;;;0.20;0.10;;;7.70;99.90;;;;;;21150608;28;20878;-68
2023/02/21 03:48:57;;;;;;;0.20;0.10;;;7.70;99.90;;;;;;21149466;28;20428;-68
2023/02/21 03:59:02;;;;;;;0.20;0.10;;;7.70;99.90;;;;;;21165186;27;20456;-68
2023/02/21 04:09:06;;;;;;;0.20;0.10;;;7.40;99.90;;;;;;21137872;28;20423;-68
2023/02/21 04:19:11;;;;;;;0.20;0.10;;;7.40;99.90;;;;;;21098410;28;20467;-68
2023/02/21 04:29:15;;;;;;;0.20;0.10;;;7.40;99.90;;;;;;21128920;28;20511;-68
2023/02/21 04:39:20;;;;;;;0.20;0.10;;;7.10;99.90;;;;;;21128090;28;20392;-67
2023/02/21 04:49:26;;;;;;;0.20;0.10;;;7.10;99.90;;;;;;21145804;28;20421;-68
2023/02/21 04:59:31;;;;;;;0.20;0.10;;;7.20;99.90;;;;;;21145556;28;20417;-68
2023/02/21 05:09:35;;;;;;;0.20;0.10;;;7.40;99.90;;;;;;21121042;28;20452;-68
2023/02/21 05:19:40;;;;;;;0.20;0.10;;;7.00;99.90;;;;;;21143986;28;20505;-67
2023/02/21 05:29:46;;;;;;;0.20;0.10;;;6.90;99.90;;;;;;21141081;28;20455;-68
2023/02/21 05:39:51;;;;;;;0.20;0.10;;;7.10;99.90;;;;;;21141141;28;20440;-68
2023/02/21 05:49:56;;;;;;;0.20;0.10;;;7.30;99.90;;;;;;21122672;28;20414;-68
2023/02/21 06:00:01;;;;;;;0.20;0.10;;;7.20;99.90;;;;;;21158295;28;20394;-68
2023/02/21 06:10:06;;;;;;;0.20;0.10;;;7.20;99.90;;;;;;21157989;28;20410;-69
2023/02/21 06:20:15;;;;;;;0.20;0.10;;;7.20;99.90;;;;;;21157438;28;20398;-68
2023/02/21 06:30:19;;;;;;;0.20;0.10;;;7.00;99.90;;;;;;21154577;28;20880;-67
2023/02/21 06:40:26;;;;;;;0.20;0.10;;;7.30;99.90;;;;;;21135764;28;20457;-68
2023/02/21 06:50:33;;;;;;;0.20;0.10;;;7.30;99.90;;;;;;21132530;28;21355;-68
2023/02/21 07:00:38;;;;;;;0.20;0.10;;;7.60;99.90;;;;;;21147663;28;20410;-70
2023/02/21 07:10:42;;;;;;;0.20;0.10;;;8.00;99.90;;;;;;21149018;28;20403;-70
2023/02/21 07:20:47;;;;;;;0.20;0.10;;;8.50;99.90;;;;;;21150656;28;20403;-70
2023/02/21 07:30:50;;;;;;;0.20;0.10;;;8.90;99.90;;;;;;21131712;28;20412;-70
2023/02/21 07:40:57;;;;;;;0.20;0.10;;;9.30;99.90;;;;;;21113300;28;20425;-70
2023/02/21 07:51:00;;;;;;;0.20;0.10;;;10.20;99.90;;;;;;21147451;28;20406;-69
2023/02/21 08:01:07;;;;;;;0.20;0.10;;;10.80;99.90;;;;;;21145816;28;20444;-70
2023/02/21 08:11:11;;;;;;;0.20;0.10;;;11.60;99.90;;;;;;21143427;28;20464;-69
2023/02/21 08:21:17;;;;;;;0.20;0.10;;;12.50;99.90;;;;;;21143409;28;20471;-70
2023/02/21 08:31:21;;;;;;;0.20;0.10;;;12.80;99.90;;;;;;21126556;28;20398;-70
2023/02/21 08:41:26;;;;;;;0.20;0.10;;;12.80;99.90;;;;;;21143288;28;20395;-69
2023/02/21 08:51:31;;;;;;;0.20;0.10;;;13.20;99.90;;;;;;21126427;28;20416;-71
2023/02/21 09:01:37;;;;;;;0.20;0.10;;;13.70;99.90;;;;;;21142412;28;20447;-68
2023/02/21 09:11:45;;;;;;;0.20;0.05;;;13.50;99.90;;;;;;21141718;28;20398;-68
2023/02/21 09:21:55;;;;;;;0.20;0.10;;;13.10;99.90;;;;;;21139615;28;20416;-69
2023/02/21 09:32:13;;;;;;;0.20;0.10;;;13.20;99.90;;;;;;21120976;28;20391;-68
2023/02/21 09:42:24;;;;;;;0.20;0.10;;;13.60;99.90;;;;;;21105418;28;20418;-68
2023/02/21 09:52:32;;;;;;;0.20;0.10;;;13.90;99.90;;;;;;21122924;28;20406;-69
2023/02/21 10:02:49;;;;;;;0.20;0.00;;;14.40;99.90;;;;;;21121272;28;20395;-69
2023/02/21 10:12:58;;;;;;;0.50;0.50;;;15.50;99.90;;;;;;21133865;28;20422;-68
2023/02/21 10:23:13;;;;;;;0.20;0.10;;;15.70;99.90;;;;;;21078265;28;20408;-68
2023/02/21 10:33:17;;;;;;;0.20;0.10;;;16.10;99.90;;;;;;21068063;28;20426;-68
2023/02/21 10:43:27;;;;;;;0.20;0.10;;;16.20;99.90;;;;;;21095679;28;20918;-67
2023/02/21 10:53:34;;;;;;;0.20;0.10;;;16.40;99.90;;;;;;21132690;28;20430;-69
2023/02/21 11:03:44;;;;;;;0.20;0.10;;;17.20;99.90;;;;;;21133228;28;20490;-69
2023/02/21 11:13:48;;;;;;;0.20;0.10;;;17.50;99.90;;;;;;21126391;28;20442;-68
2023/02/21 11:23:57;;;;;;;0.20;0.10;;;17.20;99.90;;;;;;21105105;28;20761;-69
2023/02/21 11:34:05;;;;;;;0.20;0.10;;;17.70;99.90;;;;;;21125512;28;20418;-69
2023/02/21 11:44:30;;;;;;;0.20;0.10;;;18.00;99.90;;;;;;21127993;28;20763;-69
2023/02/21 11:54:33;;;;;;;0.20;0.10;;;18.90;99.90;;;;;;21126407;28;20449;-69
2023/02/21 12:04:52;;;;;;;0.20;0.00;;;18.80;99.90;;;;;;21127789;28;20428;-69
2023/02/21 12:15:19;;;;;;;0.20;0.00;;;19.00;99.90;;;;;;21109454;28;20410;-68
2023/02/21 12:25:31;;;;;;;1.00;1.00;;;19.00;99.90;;;;;;21050011;28;20411;-68
2023/02/21 12:36:01;;;;;;;0.20;0.00;;;18.90;99.90;;;;;;21057258;28;20408;-67
2023/02/21 12:46:13;;;;;;;0.20;0.00;;;19.30;99.90;;;;;;21075848;28;20733;-68
2023/02/21 12:56:23;;;;;;;0.20;0.10;;;19.50;99.90;;;;;;21125054;28;20414;-68
2023/02/21 13:06:32;;;;;;;0.20;0.10;;;19.80;99.90;;;;;;21124407;28;20394;-69
2023/02/21 13:16:36;;;;;;;0.20;0.00;;;19.60;99.90;;;;;;21121075;28;20421;-70
2023/02/21 13:27:07;;;;;;;0.20;0.00;;;19.80;99.90;;;;;;21073314;28;20400;-72
2023/02/21 13:37:17;;;;;;;0.20;0.10;;;20.40;99.90;;;;;;21053951;28;20423;-70
2023/02/21 13:47:23;;;;;;;0.20;0.00;;;20.30;99.90;;;;;;21097752;28;20395;-68
2023/02/21 13:57:31;;;;;;;0.20;0.00;;;20.90;99.90;;;;;;21157076;28;20406;-69
2023/02/21 14:07:48;;;;;;;0.20;0.00;;;20.60;99.90;;;;;;21155248;28;20480;-66
2023/02/21 14:17:54;;;;;;;0.20;0.00;;;21.30;99.90;;;;;;21122111;28;20400;-70
2023/02/21 14:27:59;;;;;;;0.20;0.00;;;21.00;99.90;;;;;;21064844;28;20465;-68
2023/02/21 14:38:07;;;;;;;0.20;0.00;;;20.80;99.90;;;;;;21083294;28;21083;-69
2023/02/21 14:48:43;;;;;;;0.20;0.00;;;20.10;99.90;;;;;;21121476;28;20881;-67
2023/02/21 14:59:08;;;;;;;0.20;0.00;;;20.00;99.90;;;;;;21115792;28;20398;-69
2023/02/21 15:09:18;;;;;;;0.20;0.00;;;20.20;99.90;;;;;;21149769;28;21292;-69
2023/02/21 15:19:28;;;;;;;0.20;0.00;;;20.20;99.90;;;;;;21123986;28;20404;-69
2023/02/21 15:29:33;;;;;;;0.20;0.00;;;19.30;99.90;;;;;;21046081;28;20412;-70
2023/02/21 15:39:40;;;;;;;0.20;0.00;;;19.00;99.90;;;;;;21044963;28;20400;-68
2023/02/21 15:49:53;;;;;;;0.20;0.10;;;18.60;99.90;;;;;;21109460;28;20410;-68
2023/02/21 16:00:22;;;;;;;0.20;0.00;;;17.40;99.90;;;;;;21122949;28;20402;-68
2023/02/21 16:10:28;;;;;;;0.20;0.10;;;16.00;99.90;;;;;;21141308;28;20416;-69
2023/02/21 16:20:34;;;;;;;0.20;0.00;;;15.70;99.90;;;;;;21107853;28;20415;-70
2023/02/21 16:30:39;;;;;;;0.20;0.00;;;15.00;99.90;;;;;;21074677;28;20499;-69
2023/02/21 16:40:43;;;;;;;0.20;0.00;;;14.90;99.90;;;;;;21057039;28;20491;-69
2023/02/21 16:50:49;;;;;;;0.20;0.10;;;14.90;99.90;;;;;;21133895;28;20468;-70
2023/02/21 17:00:54;;;;;;;0.20;0.10;;;15.10;99.90;;;;;;21123248;28;20390;-68
2023/02/21 17:11:00;;;;;;;0.20;0.00;;;15.10;99.90;;;;;;21141225;28;20490;-69
2023/02/21 17:21:04;;;;;;;0.20;0.10;;;15.20;99.90;;;;;;21112769;28;20914;-68
2023/02/21 17:31:09;;;;;;;0.20;0.00;;;15.20;99.90;;;;;;21055163;28;20740;-70
2023/02/21 17:41:15;;;;;;;0.20;0.10;;;15.60;99.90;;;;;;21089207;28;20484;-69
2023/02/21 17:51:23;;;;;;;0.20;0.10;;;15.50;99.90;;;;;;21152319;28;20401;-70
2023/02/21 18:01:28;;;;;;;0.20;0.10;;;15.10;99.90;;;;;;21153516;28;20448;-70
2023/02/21 18:11:34;;;;;;;0.20;0.10;;;15.20;99.90;;;;;;21149652;28;20414;-69
2023/02/21 18:21:40;;;;;;;0.23;0.17;;;15.10;99.90;;;;;;21134781;28;20422;-69
2023/02/21 18:31:45;;;;;;;0.20;0.00;;;14.80;99.90;;;;;;21132463;28;20402;-74
2023/02/21 18:41:49;;;;;;;0.20;0.00;;;14.50;99.90;;;;;;21148717;28;20485;-70
2023/02/21 18:51:55;;;;;;;0.20;0.07;;;14.10;99.90;;;;;;21130334;28;20399;-70
2023/02/21 19:01:58;;;;;;;0.20;0.10;;;14.20;99.90;;;;;;21148728;28;20398;-70
2023/02/21 19:12:06;;;;;;;0.20;0.00;;;14.40;99.90;;;;;;21147470;28;20447;-69
2023/02/21 19:22:10;;;;;;;0.20;0.00;;;14.40;99.90;;;;;;21128889;28;20440;-69
2023/02/21 19:32:17;;;;;;;0.20;0.00;;;14.30;99.90;;;;;;21147013;28;20403;-69
2023/02/21 19:42:26;;;;;;;0.20;0.10;;;14.20;99.90;;;;;;21128082;28;20394;-69
2023/02/21 19:52:34;;;;;;;0.20;0.10;;;13.80;99.90;;;;;;21125621;28;20457;-70
2023/02/21 20:02:38;;;;;;;0.20;0.10;;;13.80;99.90;;;;;;21122843;28;20490;-70
2023/02/21 20:12:43;;;;;;;0.20;0.10;;;14.20;99.90;;;;;;21140649;28;20894;-68
2023/02/21 20:22:47;;;;;;;0.20;0.10;;;14.10;99.90;;;;;;21123986;28;20418;-70
2023/02/21 20:32:52;;;;;;;0.20;0.10;;;14.40;99.90;;;;;;21140964;28;20406;-70
2023/02/21 20:42:56;;;;;;;0.20;0.10;;;14.40;99.90;;;;;;21140013;28;20394;-70
2023/02/21 20:53:01;;;;;;;0.20;0.10;;;14.40;99.90;;;;;;21140353;28;20885;-68
2023/02/21 21:03:08;;;;;;;0.20;0.10;;;14.40;99.90;;;;;;21144295;28;20460;-69
2023/02/21 21:13:13;;;;;;;0.20;0.10;;;14.30;99.90;;;;;;21108566;28;20815;-69
2023/02/21 21:23:16;;;;;;;0.20;0.10;;;14.50;99.90;;;;;;21157229;28;20859;-69
2023/02/21 21:33:22;;;;;;;0.20;0.10;;;14.40;99.90;;;;;;21122873;28;20428;-70
2023/02/21 21:43:27;;;;;;;0.20;0.00;;;14.00;99.90;;;;;;21138644;28;20428;-72
2023/02/21 21:53:33;;;;;;;0.20;0.07;;;14.10;99.90;;;;;;21124422;28;20411;-71
2023/02/21 22:03:37;;;;;;;0.20;0.10;;;13.80;99.90;;;;;;21150042;28;20413;-68
2023/02/21 22:13:42;;;;;;;0.20;0.10;;;13.70;99.90;;;;;;21140349;28;20399;-69
2023/02/21 22:23:47;;;;;;;0.20;0.00;;;13.80;99.90;;;;;;21171699;27;20942;-70
2023/02/21 22:33:52;;;;;;;0.20;0.10;;;14.10;99.90;;;;;;21137487;28;20472;-71
2023/02/21 22:43:57;;;;;;;0.20;0.05;;;13.80;99.90;;;;;;21156186;28;20401;-69
2023/02/21 22:54:02;;;;;;;0.20;0.10;;;13.70;99.90;;;;;;21138051;28;20509;-69
2023/02/21 23:04:14;;;;;;;0.20;0.10;;;13.50;99.90;;;;;;21155390;28;20430;-68
2023/02/21 23:14:21;;;;;;;0.20;0.10;;;13.60;99.90;;;;;;21135663;28;20695;-68
2023/02/21 23:24:26;;;;;;;0.20;0.10;;;13.30;99.90;;;;;;21169578;27;20402;-68
2023/02/21 23:34:38;;;;;;;0.20;0.10;;;13.50;99.90;;;;;;21133686;28;20398;-68
2023/02/21 23:44:44;;;;;;;0.20;0.10;;;13.20;99.90;;;;;;21119253;28;20391;-68
2023/02/21 23:54:49;;;;;;;0.20;0.10;;;13.10;99.90;;;;;;21132963;28;20414;-68
